Archival Weather

Alykel

Alykel, Russia (UOOO)

Report from: Tuesday, November 21, 2023 4:00 AM UTC
Current time: Friday, July 19, 2024 1:40 AM UTC

Current weather – Weather history – Daily summaries
Weather forecast

Present weatherLight snow, mist
Temperature-25.0°C (-13.0°F)
Wind chill-37.2°C (-34.9°F)
Dew point-28.0°C (-18.4°F)
Winds 11.7 kts (6 m/s, 13.4 mph) South-Southwest (200°)
Visibility2.5 mi. (4.1 km)
Clouds Ceiling: Overcast 2,900 ft. (884 m)
Altimeter30.15 in.Hg (1021 mB)
Precip. events QF 3:29 PM
Relative humidity76 %
Density altitude-5,440 ft. (-1,658 m)
Remarks No significant changes expected in the next two hours
Flight conditions Instrument Meteorological Conditions
Raw dataUOOO 210400Z 20006MPS 4100 -SN BR OVC029 M25/M28 Q1021 R19/35//60 NOSIG RMK QFE749/0999
An error has occurred. This application may no longer respond until reloaded. Reload 🗙